sensor_id;sensor_type;location;lat;lon;timestamp;temperature;humidity
16823;DHT22;8528;49.976;11.858;2024-02-23T00:02:14;7.20;99.90
16823;DHT22;8528;49.976;11.858;2024-02-23T00:04:41;7.20;99.90
16823;DHT22;8528;49.976;11.858;2024-02-23T00:07:08;7.20;99.90
16823;DHT22;8528;49.976;11.858;2024-02-23T00:09:36;7.20;99.90
16823;DHT22;8528;49.976;11.858;2024-02-23T00:12:03;7.20;99.90
16823;DHT22;8528;49.976;11.858;2024-02-23T00:14:31;7.10;99.90
16823;DHT22;8528;49.976;11.858;2024-02-23T00:16:58;7.10;99.90
16823;DHT22;8528;49.976;11.858;2024-02-23T00:19:25;7.10;99.90
16823;DHT22;8528;49.976;11.858;2024-02-23T00:21:53;7.10;99.90
16823;DHT22;8528;49.976;11.858;2024-02-23T00:24:19;7.00;99.90
16823;DHT22;8528;49.976;11.858;2024-02-23T00:26:49;7.00;99.90
16823;DHT22;8528;49.976;11.858;2024-02-23T00:29:18;7.00;99.90
16823;DHT22;8528;49.976;11.858;2024-02-23T00:31:45;7.00;99.90
16823;DHT22;8528;49.976;11.858;2024-02-23T00:34:12;7.00;99.90
16823;DHT22;8528;49.976;11.858;2024-02-23T00:36:41;7.00;99.90
16823;DHT22;8528;49.976;11.858;2024-02-23T00:39:09;7.00;99.90
16823;DHT22;8528;49.976;11.858;2024-02-23T00:41:36;6.90;99.90
16823;DHT22;8528;49.976;11.858;2024-02-23T00:44:03;6.90;99.90
16823;DHT22;8528;49.976;11.858;2024-02-23T00:46:30;6.90;99.90
16823;DHT22;8528;49.976;11.858;2024-02-23T00:48:57;6.90;99.90
16823;DHT22;8528;49.976;11.858;2024-02-23T00:51:24;6.80;99.90
16823;DHT22;8528;49.976;11.858;2024-02-23T00:53:51;6.80;99.90
16823;DHT22;8528;49.976;11.858;2024-02-23T00:56:17;6.80;99.90
16823;DHT22;8528;49.976;11.858;2024-02-23T00:58:44;6.70;99.90
16823;DHT22;8528;49.976;11.858;2024-02-23T01:01:11;6.70;99.90
16823;DHT22;8528;49.976;11.858;2024-02-23T01:03:38;6.60;99.90
16823;DHT22;8528;49.976;11.858;2024-02-23T01:06:05;6.60;99.90
16823;DHT22;8528;49.976;11.858;2024-02-23T01:08:32;6.60;99.90
16823;DHT22;8528;49.976;11.858;2024-02-23T01:10:59;6.60;99.90
16823;DHT22;8528;49.976;11.858;2024-02-23T01:13:26;6.60;99.90
16823;DHT22;8528;49.976;11.858;2024-02-23T01:15:53;6.60;99.90
16823;DHT22;8528;49.976;11.858;2024-02-23T01:18:20;6.60;99.90
16823;DHT22;8528;49.976;11.858;2024-02-23T01:20:47;6.60;99.90
16823;DHT22;8528;49.976;11.858;2024-02-23T01:23:14;6.70;99.90
16823;DHT22;8528;49.976;11.858;2024-02-23T01:25:41;6.70;99.90
16823;DHT22;8528;49.976;11.858;2024-02-23T01:28:07;6.60;99.90
16823;DHT22;8528;49.976;11.858;2024-02-23T01:30:34;6.60;99.90
16823;DHT22;8528;49.976;11.858;2024-02-23T01:33:01;6.60;99.90
16823;DHT22;8528;49.976;11.858;2024-02-23T01:35:29;6.60;99.90
16823;DHT22;8528;49.976;11.858;2024-02-23T01:37:57;6.60;99.90
16823;DHT22;8528;49.976;11.858;2024-02-23T01:40:24;6.60;99.90
16823;DHT22;8528;49.976;11.858;2024-02-23T01:43:03;6.60;99.90
16823;DHT22;8528;49.976;11.858;2024-02-23T01:45:31;6.60;99.90
16823;DHT22;8528;49.976;11.858;2024-02-23T01:47:59;6.60;99.90
16823;DHT22;8528;49.976;11.858;2024-02-23T01:50:27;6.60;99.90
16823;DHT22;8528;49.976;11.858;2024-02-23T01:52:57;6.60;99.90
16823;DHT22;8528;49.976;11.858;2024-02-23T01:55:26;6.60;99.90
16823;DHT22;8528;49.976;11.858;2024-02-23T01:57:54;6.60;99.90
16823;DHT22;8528;49.976;11.858;2024-02-23T02:00:21;6.50;99.90
16823;DHT22;8528;49.976;11.858;2024-02-23T02:02:48;6.50;99.90
16823;DHT22;8528;49.976;11.858;2024-02-23T02:05:15;6.50;99.90
16823;DHT22;8528;49.976;11.858;2024-02-23T02:07:42;6.40;99.90
16823;DHT22;8528;49.976;11.858;2024-02-23T02:10:10;6.40;99.90
16823;DHT22;8528;49.976;11.858;2024-02-23T02:12:37;6.40;99.90
16823;DHT22;8528;49.976;11.858;2024-02-23T02:15:05;6.50;99.90
16823;DHT22;8528;49.976;11.858;2024-02-23T02:17:32;6.40;99.90
16823;DHT22;8528;49.976;11.858;2024-02-23T02:20:04;6.30;99.90
16823;DHT22;8528;49.976;11.858;2024-02-23T02:22:34;6.30;99.90
16823;DHT22;8528;49.976;11.858;2024-02-23T02:25:01;6.30;99.90
16823;DHT22;8528;49.976;11.858;2024-02-23T02:27:28;6.20;99.90
16823;DHT22;8528;49.976;11.858;2024-02-23T02:29:55;6.10;99.90
16823;DHT22;8528;49.976;11.858;2024-02-23T02:32:23;6.10;99.90
16823;DHT22;8528;49.976;11.858;2024-02-23T02:34:50;6.00;99.90
16823;DHT22;8528;49.976;11.858;2024-02-23T02:37:17;6.00;99.90
16823;DHT22;8528;49.976;11.858;2024-02-23T02:39:43;5.90;99.90
16823;DHT22;8528;49.976;11.858;2024-02-23T02:42:10;5.80;99.90
16823;DHT22;8528;49.976;11.858;2024-02-23T02:44:37;5.80;99.90
16823;DHT22;8528;49.976;11.858;2024-02-23T02:47:04;5.80;99.90
16823;DHT22;8528;49.976;11.858;2024-02-23T02:49:31;5.70;99.90
16823;DHT22;8528;49.976;11.858;2024-02-23T02:51:58;5.70;99.90
16823;DHT22;8528;49.976;11.858;2024-02-23T02:54:25;5.70;99.90
16823;DHT22;8528;49.976;11.858;2024-02-23T02:56:52;5.70;99.90
16823;DHT22;8528;49.976;11.858;2024-02-23T02:59:21;5.80;99.90
16823;DHT22;8528;49.976;11.858;2024-02-23T03:01:51;5.80;99.90
16823;DHT22;8528;49.976;11.858;2024-02-23T03:04:18;5.70;99.90
16823;DHT22;8528;49.976;11.858;2024-02-23T03:06:45;5.60;99.90
16823;DHT22;8528;49.976;11.858;2024-02-23T03:09:12;5.60;99.90
16823;DHT22;8528;49.976;11.858;2024-02-23T03:11:39;5.50;99.90
16823;DHT22;8528;49.976;11.858;2024-02-23T03:14:07;5.50;99.90
16823;DHT22;8528;49.976;11.858;2024-02-23T03:16:33;5.50;99.90
16823;DHT22;8528;49.976;11.858;2024-02-23T03:19:01;5.50;99.90
16823;DHT22;8528;49.976;11.858;2024-02-23T03:21:27;5.50;99.90
16823;DHT22;8528;49.976;11.858;2024-02-23T03:23:54;5.50;99.90
16823;DHT22;8528;49.976;11.858;2024-02-23T03:26:21;5.40;99.90
16823;DHT22;8528;49.976;11.858;2024-02-23T03:28:49;5.40;99.90
16823;DHT22;8528;49.976;11.858;2024-02-23T03:31:16;5.40;99.90
16823;DHT22;8528;49.976;11.858;2024-02-23T03:33:42;5.40;99.90
16823;DHT22;8528;49.976;11.858;2024-02-23T03:36:12;5.40;99.90
16823;DHT22;8528;49.976;11.858;2024-02-23T03:38:39;5.40;99.90
16823;DHT22;8528;49.976;11.858;2024-02-23T03:41:07;5.40;99.90
16823;DHT22;8528;49.976;11.858;2024-02-23T03:43:33;5.40;99.90
16823;DHT22;8528;49.976;11.858;2024-02-23T03:46:01;5.50;99.90
16823;DHT22;8528;49.976;11.858;2024-02-23T03:48:28;5.50;99.90
16823;DHT22;8528;49.976;11.858;2024-02-23T03:50:56;5.50;99.90
16823;DHT22;8528;49.976;11.858;2024-02-23T03:53:23;5.40;99.90
16823;DHT22;8528;49.976;11.858;2024-02-23T03:55:50;5.40;99.90
16823;DHT22;8528;49.976;11.858;2024-02-23T03:58:17;5.50;99.90
16823;DHT22;8528;49.976;11.858;2024-02-23T04:00:44;5.40;99.90
16823;DHT22;8528;49.976;11.858;2024-02-23T04:03:11;5.30;99.90
16823;DHT22;8528;49.976;11.858;2024-02-23T04:05:38;5.30;99.90
16823;DHT22;8528;49.976;11.858;2024-02-23T04:08:05;5.40;99.90
16823;DHT22;8528;49.976;11.858;2024-02-23T04:10:33;5.30;99.90
16823;DHT22;8528;49.976;11.858;2024-02-23T04:13:00;5.30;99.90
16823;DHT22;8528;49.976;11.858;2024-02-23T04:15:27;5.30;99.90
16823;DHT22;8528;49.976;11.858;2024-02-23T04:17:54;5.20;99.90
16823;DHT22;8528;49.976;11.858;2024-02-23T04:20:21;5.20;99.90
16823;DHT22;8528;49.976;11.858;2024-02-23T04:22:48;5.20;99.90
16823;DHT22;8528;49.976;11.858;2024-02-23T04:25:15;5.20;99.90
16823;DHT22;8528;49.976;11.858;2024-02-23T04:27:42;5.10;99.90
16823;DHT22;8528;49.976;11.858;2024-02-23T04:30:10;5.10;99.90
16823;DHT22;8528;49.976;11.858;2024-02-23T04:32:38;5.10;99.90
16823;DHT22;8528;49.976;11.858;2024-02-23T04:35:06;5.10;99.90
16823;DHT22;8528;49.976;11.858;2024-02-23T04:37:33;5.00;99.90
16823;DHT22;8528;49.976;11.858;2024-02-23T04:40:03;5.00;99.90
16823;DHT22;8528;49.976;11.858;2024-02-23T04:42:32;4.90;99.90
16823;DHT22;8528;49.976;11.858;2024-02-23T04:44:59;5.00;99.90
16823;DHT22;8528;49.976;11.858;2024-02-23T04:47:26;5.00;99.90
16823;DHT22;8528;49.976;11.858;2024-02-23T04:49:54;5.00;99.90
16823;DHT22;8528;49.976;11.858;2024-02-23T04:52:21;5.00;99.90
16823;DHT22;8528;49.976;11.858;2024-02-23T04:54:48;5.00;99.90
16823;DHT22;8528;49.976;11.858;2024-02-23T04:57:14;5.00;99.90
16823;DHT22;8528;49.976;11.858;2024-02-23T04:59:41;5.00;99.90
16823;DHT22;8528;49.976;11.858;2024-02-23T05:02:10;5.00;99.90
16823;DHT22;8528;49.976;11.858;2024-02-23T05:04:37;5.00;99.90
16823;DHT22;8528;49.976;11.858;2024-02-23T05:07:04;5.00;99.90
16823;DHT22;8528;49.976;11.858;2024-02-23T05:09:31;5.00;99.90
16823;DHT22;8528;49.976;11.858;2024-02-23T05:11:58;5.00;99.90
16823;DHT22;8528;49.976;11.858;2024-02-23T05:14:26;5.00;99.90
16823;DHT22;8528;49.976;11.858;2024-02-23T05:16:54;5.00;99.90
16823;DHT22;8528;49.976;11.858;2024-02-23T05:19:20;4.90;99.90
16823;DHT22;8528;49.976;11.858;2024-02-23T05:21:48;4.80;99.90
16823;DHT22;8528;49.976;11.858;2024-02-23T05:24:14;4.70;99.90
16823;DHT22;8528;49.976;11.858;2024-02-23T05:26:42;4.60;99.90
16823;DHT22;8528;49.976;11.858;2024-02-23T05:29:12;4.50;99.90
16823;DHT22;8528;49.976;11.858;2024-02-23T05:31:49;4.40;99.90
16823;DHT22;8528;49.976;11.858;2024-02-23T05:34:16;4.30;99.90
16823;DHT22;8528;49.976;11.858;2024-02-23T05:36:44;4.20;99.90
16823;DHT22;8528;49.976;11.858;2024-02-23T05:39:15;4.10;99.90
16823;DHT22;8528;49.976;11.858;2024-02-23T05:41:43;4.00;99.90
16823;DHT22;8528;49.976;11.858;2024-02-23T05:44:10;4.00;99.90
16823;DHT22;8528;49.976;11.858;2024-02-23T05:46:37;3.90;99.90
16823;DHT22;8528;49.976;11.858;2024-02-23T05:49:05;3.90;99.90
16823;DHT22;8528;49.976;11.858;2024-02-23T05:51:32;3.80;99.90
16823;DHT22;8528;49.976;11.858;2024-02-23T05:53:59;3.70;99.90
16823;DHT22;8528;49.976;11.858;2024-02-23T05:56:25;3.70;99.90
16823;DHT22;8528;49.976;11.858;2024-02-23T05:58:53;3.70;99.90
16823;DHT22;8528;49.976;11.858;2024-02-23T06:01:20;3.70;99.90
16823;DHT22;8528;49.976;11.858;2024-02-23T06:03:46;3.70;99.90
16823;DHT22;8528;49.976;11.858;2024-02-23T06:06:14;3.70;99.90
16823;DHT22;8528;49.976;11.858;2024-02-23T06:08:41;3.60;99.90
16823;DHT22;8528;49.976;11.858;2024-02-23T06:11:09;3.60;99.90
16823;DHT22;8528;49.976;11.858;2024-02-23T06:13:37;3.60;99.90
16823;DHT22;8528;49.976;11.858;2024-02-23T06:16:09;3.60;99.90
16823;DHT22;8528;49.976;11.858;2024-02-23T06:18:37;3.50;99.90
16823;DHT22;8528;49.976;11.858;2024-02-23T06:21:15;3.50;99.90
16823;DHT22;8528;49.976;11.858;2024-02-23T06:23:42;3.50;99.90
16823;DHT22;8528;49.976;11.858;2024-02-23T06:26:10;3.50;99.90
16823;DHT22;8528;49.976;11.858;2024-02-23T06:28:38;3.40;99.90
16823;DHT22;8528;49.976;11.858;2024-02-23T06:31:09;3.40;99.90
16823;DHT22;8528;49.976;11.858;2024-02-23T06:33:36;3.30;99.90
16823;DHT22;8528;49.976;11.858;2024-02-23T06:36:03;3.30;99.90
16823;DHT22;8528;49.976;11.858;2024-02-23T06:38:31;3.30;99.90
16823;DHT22;8528;49.976;11.858;2024-02-23T06:40:58;3.30;99.90
16823;DHT22;8528;49.976;11.858;2024-02-23T06:43:25;3.20;99.90
16823;DHT22;8528;49.976;11.858;2024-02-23T06:45:53;3.20;99.90
16823;DHT22;8528;49.976;11.858;2024-02-23T06:48:20;3.20;99.90
16823;DHT22;8528;49.976;11.858;2024-02-23T06:50:47;3.20;99.90
16823;DHT22;8528;49.976;11.858;2024-02-23T06:53:14;3.20;99.90
16823;DHT22;8528;49.976;11.858;2024-02-23T06:55:41;3.20;99.90
16823;DHT22;8528;49.976;11.858;2024-02-23T06:58:08;3.20;99.90
16823;DHT22;8528;49.976;11.858;2024-02-23T07:00:37;3.20;99.90
16823;DHT22;8528;49.976;11.858;2024-02-23T07:03:05;3.20;99.90
16823;DHT22;8528;49.976;11.858;2024-02-23T07:05:32;3.10;99.90
16823;DHT22;8528;49.976;11.858;2024-02-23T07:07:59;3.10;99.90
16823;DHT22;8528;49.976;11.858;2024-02-23T07:10:26;3.10;99.90
16823;DHT22;8528;49.976;11.858;2024-02-23T07:12:53;3.10;99.90
16823;DHT22;8528;49.976;11.858;2024-02-23T07:15:21;3.10;99.90
16823;DHT22;8528;49.976;11.858;2024-02-23T07:17:48;3.20;99.90
16823;DHT22;8528;49.976;11.858;2024-02-23T07:20:15;3.20;99.90
16823;DHT22;8528;49.976;11.858;2024-02-23T07:22:46;3.20;99.90
16823;DHT22;8528;49.976;11.858;2024-02-23T07:25:17;3.30;99.90
16823;DHT22;8528;49.976;11.858;2024-02-23T07:27:44;3.30;99.90
16823;DHT22;8528;49.976;11.858;2024-02-23T07:30:12;3.30;99.90
16823;DHT22;8528;49.976;11.858;2024-02-23T07:32:40;3.30;99.90
16823;DHT22;8528;49.976;11.858;2024-02-23T07:35:20;3.40;99.90
16823;DHT22;8528;49.976;11.858;2024-02-23T07:37:48;3.40;99.90
16823;DHT22;8528;49.976;11.858;2024-02-23T07:40:15;3.50;99.90
16823;DHT22;8528;49.976;11.858;2024-02-23T07:42:46;3.60;99.90
16823;DHT22;8528;49.976;11.858;2024-02-23T07:45:13;3.60;99.90
16823;DHT22;8528;49.976;11.858;2024-02-23T07:47:40;3.70;99.90
16823;DHT22;8528;49.976;11.858;2024-02-23T07:50:08;3.70;99.90
16823;DHT22;8528;49.976;11.858;2024-02-23T07:52:35;3.80;99.90
16823;DHT22;8528;49.976;11.858;2024-02-23T07:55:02;3.80;99.90
16823;DHT22;8528;49.976;11.858;2024-02-23T07:57:32;3.90;99.90
16823;DHT22;8528;49.976;11.858;2024-02-23T08:00:01;4.00;99.90
16823;DHT22;8528;49.976;11.858;2024-02-23T08:02:28;4.10;99.90
16823;DHT22;8528;49.976;11.858;2024-02-23T08:04:55;4.30;99.90
16823;DHT22;8528;49.976;11.858;2024-02-23T08:07:22;4.40;99.90
16823;DHT22;8528;49.976;11.858;2024-02-23T08:09:49;4.50;99.90
16823;DHT22;8528;49.976;11.858;2024-02-23T08:12:16;4.60;99.90
16823;DHT22;8528;49.976;11.858;2024-02-23T08:14:43;4.60;99.90
16823;DHT22;8528;49.976;11.858;2024-02-23T08:17:12;4.60;99.90
16823;DHT22;8528;49.976;11.858;2024-02-23T08:19:39;4.50;99.90
16823;DHT22;8528;49.976;11.858;2024-02-23T08:22:06;4.60;99.90
16823;DHT22;8528;49.976;11.858;2024-02-23T08:24:33;4.60;99.90
16823;DHT22;8528;49.976;11.858;2024-02-23T08:27:00;4.70;99.90
16823;DHT22;8528;49.976;11.858;2024-02-23T08:29:27;4.80;99.90
16823;DHT22;8528;49.976;11.858;2024-02-23T08:31:55;4.80;99.90
16823;DHT22;8528;49.976;11.858;2024-02-23T08:34:22;4.80;99.90
16823;DHT22;8528;49.976;11.858;2024-02-23T08:36:49;4.90;99.90
16823;DHT22;8528;49.976;11.858;2024-02-23T08:39:16;4.90;99.90
16823;DHT22;8528;49.976;11.858;2024-02-23T08:41:43;5.00;99.90
16823;DHT22;8528;49.976;11.858;2024-02-23T08:44:10;5.10;99.90
16823;DHT22;8528;49.976;11.858;2024-02-23T08:46:37;5.00;99.90
16823;DHT22;8528;49.976;11.858;2024-02-23T08:49:05;5.10;99.90
16823;DHT22;8528;49.976;11.858;2024-02-23T08:51:33;5.20;99.90
16823;DHT22;8528;49.976;11.858;2024-02-23T08:54:00;5.10;99.90
16823;DHT22;8528;49.976;11.858;2024-02-23T08:56:31;5.10;99.90
16823;DHT22;8528;49.976;11.858;2024-02-23T08:58:59;5.10;99.90
16823;DHT22;8528;49.976;11.858;2024-02-23T09:01:26;5.00;99.90
16823;DHT22;8528;49.976;11.858;2024-02-23T09:03:53;4.90;99.90
16823;DHT22;8528;49.976;11.858;2024-02-23T09:06:20;4.90;99.90
16823;DHT22;8528;49.976;11.858;2024-02-23T09:08:48;4.80;99.90
16823;DHT22;8528;49.976;11.858;2024-02-23T09:11:14;4.90;99.90
16823;DHT22;8528;49.976;11.858;2024-02-23T09:13:42;4.90;99.90
16823;DHT22;8528;49.976;11.858;2024-02-23T09:16:09;5.00;99.90
16823;DHT22;8528;49.976;11.858;2024-02-23T09:18:36;5.10;99.90
16823;DHT22;8528;49.976;11.858;2024-02-23T09:21:03;5.20;99.90
16823;DHT22;8528;49.976;11.858;2024-02-23T09:23:31;5.20;99.90
16823;DHT22;8528;49.976;11.858;2024-02-23T09:25:59;5.30;99.90
16823;DHT22;8528;49.976;11.858;2024-02-23T09:28:26;5.30;99.90
16823;DHT22;8528;49.976;11.858;2024-02-23T09:30:53;5.30;99.90
16823;DHT22;8528;49.976;11.858;2024-02-23T09:33:23;5.30;99.90
16823;DHT22;8528;49.976;11.858;2024-02-23T09:35:51;5.30;99.90
16823;DHT22;8528;49.976;11.858;2024-02-23T09:38:17;5.40;99.90
16823;DHT22;8528;49.976;11.858;2024-02-23T09:40:44;5.50;99.90
16823;DHT22;8528;49.976;11.858;2024-02-23T09:43:12;5.60;99.90
16823;DHT22;8528;49.976;11.858;2024-02-23T09:45:39;5.70;99.90
16823;DHT22;8528;49.976;11.858;2024-02-23T09:48:07;5.70;99.90
16823;DHT22;8528;49.976;11.858;2024-02-23T09:50:34;5.60;99.90
16823;DHT22;8528;49.976;11.858;2024-02-23T09:53:07;5.50;99.90
16823;DHT22;8528;49.976;11.858;2024-02-23T09:55:37;5.50;99.90
16823;DHT22;8528;49.976;11.858;2024-02-23T09:58:04;5.50;99.90
16823;DHT22;8528;49.976;11.858;2024-02-23T10:00:33;5.60;99.90
16823;DHT22;8528;49.976;11.858;2024-02-23T10:03:01;5.70;99.90
16823;DHT22;8528;49.976;11.858;2024-02-23T10:05:30;5.80;99.90
16823;DHT22;8528;49.976;11.858;2024-02-23T10:08:04;5.90;99.90
16823;DHT22;8528;49.976;11.858;2024-02-23T10:10:33;5.90;99.90
16823;DHT22;8528;49.976;11.858;2024-02-23T10:13:01;6.00;99.90
16823;DHT22;8528;49.976;11.858;2024-02-23T10:15:31;6.00;99.90
16823;DHT22;8528;49.976;11.858;2024-02-23T10:17:58;6.20;99.90
16823;DHT22;8528;49.976;11.858;2024-02-23T10:20:26;6.20;99.90
16823;DHT22;8528;49.976;11.858;2024-02-23T10:22:54;6.20;99.90
16823;DHT22;8528;49.976;11.858;2024-02-23T10:25:21;6.10;99.90
16823;DHT22;8528;49.976;11.858;2024-02-23T10:27:48;6.20;99.90
16823;DHT22;8528;49.976;11.858;2024-02-23T10:30:16;6.20;99.90
16823;DHT22;8528;49.976;11.858;2024-02-23T10:32:43;6.50;99.90
16823;DHT22;8528;49.976;11.858;2024-02-23T10:35:14;6.40;99.90
16823;DHT22;8528;49.976;11.858;2024-02-23T10:37:43;6.30;99.90
16823;DHT22;8528;49.976;11.858;2024-02-23T10:40:12;6.10;99.90
16823;DHT22;8528;49.976;11.858;2024-02-23T10:42:41;6.10;99.90
16823;DHT22;8528;49.976;11.858;2024-02-23T10:45:14;6.10;99.90
16823;DHT22;8528;49.976;11.858;2024-02-23T10:47:42;6.20;99.90
16823;DHT22;8528;49.976;11.858;2024-02-23T10:50:10;6.20;99.90
16823;DHT22;8528;49.976;11.858;2024-02-23T10:52:42;6.10;99.90
16823;DHT22;8528;49.976;11.858;2024-02-23T10:55:10;6.10;99.90
16823;DHT22;8528;49.976;11.858;2024-02-23T10:57:37;6.10;99.90
16823;DHT22;8528;49.976;11.858;2024-02-23T11:00:08;6.10;99.90
16823;DHT22;8528;49.976;11.858;2024-02-23T11:02:48;6.00;99.90
16823;DHT22;8528;49.976;11.858;2024-02-23T11:05:18;6.00;99.90
16823;DHT22;8528;49.976;11.858;2024-02-23T11:07:49;6.00;99.90
16823;DHT22;8528;49.976;11.858;2024-02-23T11:10:17;5.90;99.90
16823;DHT22;8528;49.976;11.858;2024-02-23T11:12:45;5.80;99.90
16823;DHT22;8528;49.976;11.858;2024-02-23T11:15:29;5.70;99.90
16823;DHT22;8528;49.976;11.858;2024-02-23T11:17:56;5.90;99.90
16823;DHT22;8528;49.976;11.858;2024-02-23T11:20:23;6.10;99.90
16823;DHT22;8528;49.976;11.858;2024-02-23T11:22:56;6.30;99.90
16823;DHT22;8528;49.976;11.858;2024-02-23T11:25:29;6.40;99.90
16823;DHT22;8528;49.976;11.858;2024-02-23T11:27:56;6.60;99.90
16823;DHT22;8528;49.976;11.858;2024-02-23T11:30:23;6.70;99.90
16823;DHT22;8528;49.976;11.858;2024-02-23T11:32:59;6.80;99.90
16823;DHT22;8528;49.976;11.858;2024-02-23T11:35:29;7.10;99.90
16823;DHT22;8528;49.976;11.858;2024-02-23T11:37:56;7.10;99.90
16823;DHT22;8528;49.976;11.858;2024-02-23T11:40:28;7.00;99.90
16823;DHT22;8528;49.976;11.858;2024-02-23T11:42:55;7.00;99.90
16823;DHT22;8528;49.976;11.858;2024-02-23T11:45:23;7.00;99.90
16823;DHT22;8528;49.976;11.858;2024-02-23T11:47:50;7.00;99.90
16823;DHT22;8528;49.976;11.858;2024-02-23T11:50:17;7.10;99.90
16823;DHT22;8528;49.976;11.858;2024-02-23T11:52:47;7.10;99.90
16823;DHT22;8528;49.976;11.858;2024-02-23T11:55:19;6.90;99.90
16823;DHT22;8528;49.976;11.858;2024-02-23T11:57:48;6.80;99.90
16823;DHT22;8528;49.976;11.858;2024-02-23T12:00:24;6.70;99.90
16823;DHT22;8528;49.976;11.858;2024-02-23T12:02:51;6.70;99.90
16823;DHT22;8528;49.976;11.858;2024-02-23T12:05:18;6.50;99.90
16823;DHT22;8528;49.976;11.858;2024-02-23T12:07:45;6.50;99.90
16823;DHT22;8528;49.976;11.858;2024-02-23T12:10:13;6.40;99.90
16823;DHT22;8528;49.976;11.858;2024-02-23T12:12:40;6.40;99.90
16823;DHT22;8528;49.976;11.858;2024-02-23T12:15:07;6.40;99.90
16823;DHT22;8528;49.976;11.858;2024-02-23T12:17:36;6.20;99.90
16823;DHT22;8528;49.976;11.858;2024-02-23T12:20:04;6.20;99.90
16823;DHT22;8528;49.976;11.858;2024-02-23T12:22:31;6.30;99.90
16823;DHT22;8528;49.976;11.858;2024-02-23T12:25:00;6.40;99.90
16823;DHT22;8528;49.976;11.858;2024-02-23T12:27:29;6.30;99.90
16823;DHT22;8528;49.976;11.858;2024-02-23T12:29:57;6.10;99.90
16823;DHT22;8528;49.976;11.858;2024-02-23T12:32:23;5.90;99.90
16823;DHT22;8528;49.976;11.858;2024-02-23T12:34:50;5.90;99.90
16823;DHT22;8528;49.976;11.858;2024-02-23T12:37:18;5.80;99.90
16823;DHT22;8528;49.976;11.858;2024-02-23T12:39:45;5.60;99.90
16823;DHT22;8528;49.976;11.858;2024-02-23T12:42:12;5.60;99.90
16823;DHT22;8528;49.976;11.858;2024-02-23T12:44:39;5.60;99.90
16823;DHT22;8528;49.976;11.858;2024-02-23T12:47:06;5.50;99.90
16823;DHT22;8528;49.976;11.858;2024-02-23T12:49:32;5.50;99.90
16823;DHT22;8528;49.976;11.858;2024-02-23T12:51:59;5.50;99.90
16823;DHT22;8528;49.976;11.858;2024-02-23T12:54:27;5.70;99.90
16823;DHT22;8528;49.976;11.858;2024-02-23T12:56:54;5.80;99.90
16823;DHT22;8528;49.976;11.858;2024-02-23T12:59:21;6.00;99.90
16823;DHT22;8528;49.976;11.858;2024-02-23T13:01:47;6.10;99.90
16823;DHT22;8528;49.976;11.858;2024-02-23T13:04:18;5.90;99.90
16823;DHT22;8528;49.976;11.858;2024-02-23T13:06:45;5.80;99.90
16823;DHT22;8528;49.976;11.858;2024-02-23T13:09:13;5.70;99.90
16823;DHT22;8528;49.976;11.858;2024-02-23T13:11:41;5.80;99.90
16823;DHT22;8528;49.976;11.858;2024-02-23T13:14:08;6.00;99.90
16823;DHT22;8528;49.976;11.858;2024-02-23T13:16:36;6.00;99.90
16823;DHT22;8528;49.976;11.858;2024-02-23T13:19:03;6.00;99.90
16823;DHT22;8528;49.976;11.858;2024-02-23T13:21:29;6.10;99.90
16823;DHT22;8528;49.976;11.858;2024-02-23T13:23:58;6.10;99.90
16823;DHT22;8528;49.976;11.858;2024-02-23T13:26:25;6.20;99.90
16823;DHT22;8528;49.976;11.858;2024-02-23T13:28:52;6.10;99.90
16823;DHT22;8528;49.976;11.858;2024-02-23T13:31:20;5.90;99.90
16823;DHT22;8528;49.976;11.858;2024-02-23T13:33:47;5.80;99.90
16823;DHT22;8528;49.976;11.858;2024-02-23T13:36:14;5.70;99.90
16823;DHT22;8528;49.976;11.858;2024-02-23T13:38:41;5.60;99.90
16823;DHT22;8528;49.976;11.858;2024-02-23T13:41:08;5.60;99.90
16823;DHT22;8528;49.976;11.858;2024-02-23T13:43:35;5.50;99.90
16823;DHT22;8528;49.976;11.858;2024-02-23T13:46:02;5.50;99.90
16823;DHT22;8528;49.976;11.858;2024-02-23T13:48:30;5.50;99.90
16823;DHT22;8528;49.976;11.858;2024-02-23T13:50:58;5.60;99.90
16823;DHT22;8528;49.976;11.858;2024-02-23T13:53:30;5.70;99.90
16823;DHT22;8528;49.976;11.858;2024-02-23T13:55:57;5.70;99.90
16823;DHT22;8528;49.976;11.858;2024-02-23T13:58:25;5.80;99.90
16823;DHT22;8528;49.976;11.858;2024-02-23T14:00:52;5.90;99.90
16823;DHT22;8528;49.976;11.858;2024-02-23T14:03:18;5.90;99.90
16823;DHT22;8528;49.976;11.858;2024-02-23T14:05:46;5.90;99.90
16823;DHT22;8528;49.976;11.858;2024-02-23T14:08:14;5.80;99.90
16823;DHT22;8528;49.976;11.858;2024-02-23T14:10:41;5.80;99.90
16823;DHT22;8528;49.976;11.858;2024-02-23T14:13:09;5.80;99.90
16823;DHT22;8528;49.976;11.858;2024-02-23T14:15:37;5.90;99.90
16823;DHT22;8528;49.976;11.858;2024-02-23T14:18:04;5.90;99.90
16823;DHT22;8528;49.976;11.858;2024-02-23T14:20:31;5.90;99.90
16823;DHT22;8528;49.976;11.858;2024-02-23T14:22:58;5.90;99.90
16823;DHT22;8528;49.976;11.858;2024-02-23T14:25:25;5.80;99.90
16823;DHT22;8528;49.976;11.858;2024-02-23T14:27:52;5.70;99.90
16823;DHT22;8528;49.976;11.858;2024-02-23T14:30:19;5.70;99.90
16823;DHT22;8528;49.976;11.858;2024-02-23T14:32:45;5.70;99.90
16823;DHT22;8528;49.976;11.858;2024-02-23T14:35:13;5.70;99.90
16823;DHT22;8528;49.976;11.858;2024-02-23T14:37:40;5.80;99.90
16823;DHT22;8528;49.976;11.858;2024-02-23T14:40:07;5.90;99.90
16823;DHT22;8528;49.976;11.858;2024-02-23T14:42:34;5.90;99.90
16823;DHT22;8528;49.976;11.858;2024-02-23T14:45:01;5.90;99.90
16823;DHT22;8528;49.976;11.858;2024-02-23T14:47:29;5.80;99.90
16823;DHT22;8528;49.976;11.858;2024-02-23T14:50:07;5.70;99.90
16823;DHT22;8528;49.976;11.858;2024-02-23T14:52:35;5.60;99.90
16823;DHT22;8528;49.976;11.858;2024-02-23T14:55:02;5.60;99.90
16823;DHT22;8528;49.976;11.858;2024-02-23T14:57:30;5.70;99.90
16823;DHT22;8528;49.976;11.858;2024-02-23T14:59:57;5.50;99.90
16823;DHT22;8528;49.976;11.858;2024-02-23T15:02:23;5.40;99.90
16823;DHT22;8528;49.976;11.858;2024-02-23T15:04:50;5.40;99.90
16823;DHT22;8528;49.976;11.858;2024-02-23T15:07:17;5.40;99.90
16823;DHT22;8528;49.976;11.858;2024-02-23T15:09:44;5.50;99.90
16823;DHT22;8528;49.976;11.858;2024-02-23T15:12:11;5.50;99.90
16823;DHT22;8528;49.976;11.858;2024-02-23T15:14:39;5.50;99.90
16823;DHT22;8528;49.976;11.858;2024-02-23T15:17:05;5.40;99.90
16823;DHT22;8528;49.976;11.858;2024-02-23T15:19:33;5.40;99.90
16823;DHT22;8528;49.976;11.858;2024-02-23T15:21:59;5.50;99.90
16823;DHT22;8528;49.976;11.858;2024-02-23T15:24:26;5.50;99.90
16823;DHT22;8528;49.976;11.858;2024-02-23T15:26:54;5.50;99.90
16823;DHT22;8528;49.976;11.858;2024-02-23T15:29:21;5.40;99.90
16823;DHT22;8528;49.976;11.858;2024-02-23T15:31:48;5.30;99.90
16823;DHT22;8528;49.976;11.858;2024-02-23T15:34:15;5.20;99.90
16823;DHT22;8528;49.976;11.858;2024-02-23T15:36:41;5.10;99.90
16823;DHT22;8528;49.976;11.858;2024-02-23T15:39:08;5.10;99.90
16823;DHT22;8528;49.976;11.858;2024-02-23T15:41:35;5.10;99.90
16823;DHT22;8528;49.976;11.858;2024-02-23T15:44:02;5.10;99.90
16823;DHT22;8528;49.976;11.858;2024-02-23T15:46:29;5.00;99.90
16823;DHT22;8528;49.976;11.858;2024-02-23T15:48:58;5.00;99.90